createdAt,value
2018-06-10T00:01:23.063Z,38.10
2018-06-10T00:03:52.261Z,38.30
2018-06-10T00:06:21.493Z,38.80
2018-06-10T00:08:50.664Z,39.00
2018-06-10T00:11:19.859Z,39.30
2018-06-10T00:13:49.090Z,40.60
2018-06-10T00:16:18.261Z,39.90
2018-06-10T00:18:47.502Z,40.00
2018-06-10T00:21:16.677Z,40.10
2018-06-10T00:23:45.943Z,42.10
2018-06-10T00:26:15.121Z,41.40
2018-06-10T00:28:49.752Z,41.40
2018-06-10T00:31:18.963Z,41.40
2018-06-10T00:33:48.188Z,41.70
2018-06-10T00:36:17.650Z,41.90
2018-06-10T00:38:46.840Z,42.00
2018-06-10T00:41:16.089Z,42.40
2018-06-10T00:43:45.300Z,42.40
2018-06-10T00:46:14.468Z,42.40
2018-06-10T00:48:43.761Z,42.50
2018-06-10T00:51:13.125Z,42.70
2018-06-10T00:53:42.355Z,42.70
2018-06-10T00:56:29.574Z,43.20
2018-06-10T00:58:58.717Z,43.20
2018-06-10T01:01:29.134Z,43.70
2018-06-10T01:03:58.530Z,44.20
2018-06-10T01:06:27.871Z,44.80
2018-06-10T01:08:57.104Z,44.90
2018-06-10T01:11:26.341Z,45.40
2018-06-10T01:13:55.504Z,45.60
2018-06-10T01:16:24.829Z,46.70
2018-06-10T01:18:54.112Z,49.30
2018-06-10T01:21:23.305Z,48.50
2018-06-10T01:23:52.688Z,48.30
2018-06-10T01:26:27.029Z,49.30
2018-06-10T01:28:56.215Z,49.30
2018-06-10T01:31:25.446Z,49.40
2018-06-10T01:33:54.729Z,49.40
2018-06-10T01:36:23.924Z,49.20
2018-06-10T01:38:53.137Z,49.20
2018-06-10T01:41:22.370Z,49.60
2018-06-10T01:43:51.606Z,50.10
2018-06-10T01:46:20.832Z,50.80
2018-06-10T01:48:50.066Z,51.70
2018-06-10T01:51:19.250Z,51.60
2018-06-10T01:53:49.820Z,51.70
2018-06-10T01:56:19.051Z,51.60
2018-06-10T01:58:48.273Z,51.50
2018-06-10T02:01:17.423Z,52.50
2018-06-10T02:03:46.593Z,53.30
2018-06-10T02:06:15.802Z,54.00
2018-06-10T02:08:44.976Z,54.10
2018-06-10T02:11:14.136Z,55.50
2018-06-10T02:13:43.366Z,54.00
2018-06-10T02:16:12.496Z,54.10
2018-06-10T02:18:41.703Z,54.40
2018-06-10T02:21:10.893Z,54.20
2018-06-10T02:23:40.072Z,55.40
2018-06-10T02:26:09.305Z,55.50
2018-06-10T02:28:38.456Z,55.00
2018-06-10T02:31:07.631Z,54.40
2018-06-10T02:33:36.830Z,54.50
2018-06-10T02:36:06.003Z,54.60
2018-06-10T02:38:35.375Z,54.20
2018-06-10T02:41:04.674Z,54.20
2018-06-10T02:43:33.856Z,53.80
2018-06-10T02:46:03.029Z,53.60
2018-06-10T02:48:32.150Z,54.50
2018-06-10T02:51:01.310Z,54.40
2018-06-10T02:53:30.471Z,54.50
2018-06-10T02:55:59.659Z,54.30
2018-06-10T02:58:28.968Z,54.00
2018-06-10T03:00:58.176Z,53.90
2018-06-10T03:03:27.407Z,54.00
2018-06-10T03:05:56.623Z,54.50
2018-06-10T03:08:25.937Z,54.60
2018-06-10T03:10:55.113Z,54.60
2018-06-10T03:13:24.316Z,54.40
2018-06-10T03:15:53.544Z,54.40
2018-06-10T03:18:22.781Z,53.50
2018-06-10T03:20:51.977Z,53.10
2018-06-10T03:23:21.139Z,52.80
2018-06-10T03:25:50.402Z,52.60
2018-06-10T03:28:19.582Z,54.60
2018-06-10T03:30:48.725Z,53.90
2018-06-10T03:33:17.934Z,54.10
2018-06-10T03:35:47.093Z,53.80
2018-06-10T03:38:16.291Z,54.60
2018-06-10T03:40:45.574Z,52.90
2018-06-10T03:43:14.760Z,53.80
2018-06-10T03:45:43.971Z,52.00
2018-06-10T03:48:13.130Z,52.20
2018-06-10T03:50:42.330Z,52.00
2018-06-10T03:53:11.493Z,51.70
2018-06-10T03:55:40.684Z,52.00
2018-06-10T03:58:09.942Z,51.30
2018-06-10T04:00:39.134Z,50.50
2018-06-10T04:03:08.373Z,49.60
2018-06-10T04:05:37.535Z,49.70
2018-06-10T04:08:06.793Z,49.00
2018-06-10T04:10:36.014Z,48.00
2018-06-10T04:13:05.207Z,47.10
2018-06-10T04:15:34.490Z,45.30
2018-06-10T04:18:03.709Z,45.00
2018-06-10T04:20:32.862Z,43.90
2018-06-10T04:23:02.052Z,43.10
2018-06-10T04:25:31.219Z,42.40
2018-06-10T04:28:00.398Z,43.30
2018-06-10T04:30:29.567Z,42.90
2018-06-10T04:32:58.783Z,42.20
2018-06-10T04:35:27.944Z,42.30
2018-06-10T04:37:57.147Z,42.10
2018-06-10T04:40:26.451Z,41.70
2018-06-10T04:42:55.785Z,41.80
2018-06-10T04:45:25.005Z,41.10
2018-06-10T04:47:54.203Z,41.30
2018-06-10T04:50:23.359Z,41.20
2018-06-10T04:52:52.584Z,41.40
2018-06-10T04:55:21.823Z,40.80
2018-06-10T04:57:51.117Z,40.10
2018-06-10T05:00:20.365Z,39.90
2018-06-10T05:16:22.110Z,38.10
2018-06-10T05:18:51.239Z,45.20
2018-06-10T05:21:20.412Z,46.90
2018-06-10T05:23:49.541Z,48.70
2018-06-10T05:26:18.690Z,45.50
2018-06-10T05:28:47.804Z,46.00
2018-06-10T05:31:16.998Z,44.80
2018-06-10T05:33:46.103Z,44.90
2018-06-10T05:36:15.262Z,44.50
2018-06-10T05:38:44.393Z,44.10
2018-06-10T05:41:13.571Z,46.10
2018-06-10T05:43:43.271Z,45.70
2018-06-10T05:46:12.537Z,46.60
2018-06-10T05:48:41.696Z,44.70
2018-06-10T05:51:10.900Z,41.80
2018-06-10T05:53:40.058Z,39.20
2018-06-10T05:56:09.190Z,38.90
2018-06-10T05:58:38.367Z,39.00
2018-06-10T06:01:07.512Z,38.80
2018-06-10T06:03:36.647Z,38.90
2018-06-10T06:06:05.871Z,38.70
2018-06-10T06:08:34.968Z,38.70
2018-06-10T06:11:04.158Z,39.00
2018-06-10T06:13:33.318Z,37.10
2018-06-10T06:16:02.477Z,38.80
2018-06-10T06:18:31.633Z,38.80
2018-06-10T06:21:00.759Z,40.00
2018-06-10T06:23:29.949Z,40.80
2018-06-10T06:25:59.145Z,40.60
2018-06-10T06:28:28.330Z,41.90
2018-06-10T06:30:57.440Z,40.20
2018-06-10T06:33:26.596Z,40.70
2018-06-10T06:35:55.707Z,39.40
2018-06-10T06:38:24.857Z,38.90
2018-06-10T06:40:54.058Z,38.60
2018-06-10T06:43:23.241Z,38.80
2018-06-10T06:45:52.446Z,37.60
2018-06-10T06:48:21.573Z,36.80
2018-06-10T06:50:50.715Z,35.90
2018-06-10T06:53:19.836Z,35.60
2018-06-10T06:55:49.035Z,36.30
2018-06-10T06:58:18.153Z,35.80
2018-06-10T07:00:47.369Z,37.80
2018-06-10T07:03:16.476Z,38.80
2018-06-10T07:05:45.574Z,39.80
2018-06-10T07:08:14.736Z,39.30
2018-06-10T07:10:43.885Z,39.00
2018-06-10T07:15:41.987Z,39.30
2018-06-10T07:18:11.104Z,37.10
2018-06-10T07:20:40.293Z,37.60
2018-06-10T07:23:09.465Z,37.00
2018-06-10T07:25:38.600Z,35.00
2018-06-10T07:28:07.765Z,32.70
2018-06-10T07:30:36.969Z,34.20
2018-06-10T07:33:06.103Z,31.60
2018-06-10T07:35:35.253Z,31.00
2018-06-10T07:38:04.404Z,28.10
2018-06-10T07:40:33.565Z,24.40
2018-06-10T07:43:03.303Z,22.70
2018-06-10T07:45:32.549Z,21.40
2018-06-10T07:48:01.735Z,22.10
2018-06-10T07:50:30.919Z,20.00
2018-06-10T07:53:00.046Z,20.00
2018-06-10T07:55:29.263Z,18.90
2018-06-10T07:57:58.401Z,19.00
2018-06-10T08:00:27.555Z,18.50
2018-06-10T08:02:56.777Z,18.40
2018-06-10T08:05:25.939Z,18.10
2018-06-10T08:07:55.060Z,17.60
2018-06-10T08:10:24.157Z,17.30
2018-06-10T08:12:53.368Z,15.90
2018-06-10T08:15:22.557Z,16.00
2018-06-10T08:17:51.683Z,15.90
2018-06-10T08:22:49.816Z,18.30
2018-06-10T08:25:19.046Z,18.50
2018-06-10T08:27:48.251Z,19.70
2018-06-10T08:30:17.444Z,20.00
2018-06-10T08:32:46.644Z,18.70
2018-06-10T08:35:15.801Z,18.80
2018-06-10T08:37:44.953Z,18.10
2018-06-10T08:40:14.046Z,19.40
2018-06-10T08:42:43.209Z,18.60
2018-06-10T08:45:12.387Z,19.70
2018-06-10T08:47:41.554Z,18.60
2018-06-10T08:50:10.630Z,19.30
2018-06-10T08:52:39.787Z,20.80
2018-06-10T08:55:08.904Z,20.00
2018-06-10T08:57:38.043Z,18.90
2018-06-10T09:00:07.302Z,18.60
2018-06-10T09:02:36.460Z,18.60
2018-06-10T09:05:05.492Z,18.30
2018-06-10T09:07:34.654Z,17.70
2018-06-10T09:10:03.789Z,18.50
2018-06-10T09:12:32.889Z,18.50
2018-06-10T09:15:02.045Z,18.50
2018-06-10T09:17:31.230Z,18.70
2018-06-10T09:20:00.366Z,18.60
2018-06-10T09:22:29.530Z,18.50
2018-06-10T09:24:58.744Z,19.30
2018-06-10T09:27:27.925Z,18.60
2018-06-10T09:29:57.060Z,18.60
2018-06-10T09:32:26.242Z,18.70
2018-06-10T09:34:55.455Z,18.90
2018-06-10T09:37:24.600Z,18.60
2018-06-10T09:39:53.746Z,19.10
2018-06-10T09:42:22.842Z,17.00
2018-06-10T09:44:51.993Z,17.20
2018-06-10T09:47:21.175Z,17.50
2018-06-10T09:49:50.349Z,14.90
2018-06-10T09:52:19.490Z,14.30
2018-06-10T09:54:48.645Z,12.40
2018-06-10T09:57:17.743Z,12.00
2018-06-10T09:59:46.986Z,14.00
2018-06-10T10:02:16.156Z,12.90
2018-06-10T10:04:45.347Z,11.80
2018-06-10T10:07:14.653Z,11.80
2018-06-10T10:09:43.866Z,11.20
2018-06-10T10:12:12.965Z,10.80
2018-06-10T10:14:42.232Z,11.40
2018-06-10T10:17:11.379Z,12.30
2018-06-10T10:19:40.495Z,12.40
2018-06-10T10:22:09.670Z,11.20
2018-06-10T10:24:38.796Z,11.70
2018-06-10T10:27:07.990Z,12.40
2018-06-10T10:29:37.132Z,10.80
2018-06-10T10:32:06.374Z,10.60
2018-06-10T10:34:35.520Z,10.20
2018-06-10T10:37:04.634Z,9.50
2018-06-10T10:42:03.413Z,6.30
2018-06-10T10:44:33.972Z,8.40
2018-06-10T10:47:03.170Z,8.50
2018-06-10T10:49:32.312Z,8.00
2018-06-10T10:52:01.505Z,7.00
2018-06-10T10:56:59.476Z,6.30
2018-06-10T10:59:28.667Z,7.10
2018-06-10T11:01:57.904Z,8.70
2018-06-10T11:04:27.041Z,7.80
2018-06-10T11:06:56.180Z,7.60
2018-06-10T11:09:25.329Z,7.40
2018-06-10T11:11:54.480Z,7.80
2018-06-10T11:14:23.665Z,7.00
2018-06-10T11:16:52.886Z,6.10
2018-06-10T11:19:21.988Z,6.00
2018-06-10T11:21:51.101Z,5.00
2018-06-10T11:24:20.242Z,3.10
2018-06-10T11:26:49.370Z,3.70
2018-06-10T11:29:18.501Z,1.40
2018-06-10T11:31:47.609Z,1.10
2018-06-10T11:34:16.742Z,1.00
2018-06-10T11:36:45.897Z,1.00
2018-06-10T11:39:15.009Z,1.00
2018-06-10T11:41:44.198Z,1.00
2018-06-10T11:44:13.394Z,1.00
2018-06-10T11:46:42.538Z,1.00
2018-06-10T11:49:11.609Z,1.00
2018-06-10T11:51:40.725Z,1.00
2018-06-10T11:54:09.841Z,1.00
2018-06-10T11:56:39.037Z,1.00
2018-06-10T11:59:08.186Z,1.00
2018-06-10T12:01:37.367Z,1.00
2018-06-10T12:07:03.682Z,3.20
2018-06-10T12:09:32.809Z,4.20
2018-06-10T12:12:01.953Z,5.70
2018-06-10T12:14:31.115Z,7.50
2018-06-10T12:17:00.271Z,8.10
2018-06-10T12:19:29.459Z,8.50
2018-06-10T12:21:58.573Z,9.40
2018-06-10T12:24:27.720Z,10.30
2018-06-10T12:26:56.901Z,11.30
2018-06-10T12:29:26.073Z,12.70
2018-06-10T12:31:55.203Z,14.80
2018-06-10T12:34:24.376Z,28.30
2018-06-10T12:36:53.520Z,37.30
2018-06-10T12:39:22.719Z,53.40
2018-06-10T12:41:51.845Z,63.90
2018-06-10T12:44:21.550Z,72.60
2018-06-10T12:46:50.700Z,61.40
2018-06-10T12:49:19.888Z,80.70
2018-06-10T12:51:49.084Z,85.80
2018-06-10T12:54:18.202Z,90.50
2018-06-10T12:56:47.377Z,91.60
2018-06-10T12:59:16.554Z,66.30
2018-06-10T13:01:45.733Z,54.50
2018-06-10T13:04:14.884Z,37.80
2018-06-10T13:09:13.011Z,22.40
2018-06-10T13:11:42.200Z,20.80
2018-06-10T13:14:11.349Z,14.80
2018-06-10T13:16:40.576Z,11.50
2018-06-10T13:19:09.762Z,7.50
2018-06-10T13:21:38.847Z,8.60
2018-06-10T13:24:07.989Z,7.60
2018-06-10T13:26:37.230Z,8.70
2018-06-10T13:29:06.403Z,9.00
2018-06-10T13:31:35.657Z,11.70
2018-06-10T13:34:04.925Z,16.00
2018-06-10T13:36:34.154Z,24.30
2018-06-10T13:39:03.419Z,35.30
2018-06-10T13:41:32.625Z,31.10
2018-06-10T13:44:01.745Z,33.60
2018-06-10T13:46:30.864Z,36.70
2018-06-10T13:49:00.029Z,46.20
2018-06-10T13:51:29.229Z,45.70
2018-06-10T13:53:58.370Z,47.00
2018-06-10T13:56:27.538Z,55.90
2018-06-10T13:58:56.717Z,61.50
2018-06-10T14:01:25.907Z,60.20
2018-06-10T14:03:55.038Z,71.00
2018-06-10T14:06:24.148Z,72.00
2018-06-10T14:08:53.312Z,72.70
2018-06-10T14:11:22.509Z,73.50
2018-06-10T14:13:51.664Z,76.30
2018-06-10T14:16:20.875Z,74.10
2018-06-10T14:18:50.030Z,77.10
2018-06-10T14:21:19.197Z,76.80
2018-06-10T14:23:48.321Z,76.90
2018-06-10T14:26:17.483Z,76.80
2018-06-10T14:28:46.608Z,73.30
2018-06-10T14:31:15.815Z,70.30
2018-06-10T14:33:44.960Z,69.00
2018-06-10T14:36:14.181Z,75.60
2018-06-10T14:38:43.321Z,77.20
2018-06-10T14:41:12.459Z,75.40
2018-06-10T14:43:41.699Z,69.70
2018-06-10T14:46:10.892Z,63.10
2018-06-10T14:48:40.059Z,70.80
2018-06-10T14:51:09.240Z,72.30
2018-06-10T14:53:38.369Z,74.50
2018-06-10T14:56:07.523Z,76.30
2018-06-10T14:58:36.669Z,76.50
2018-06-10T15:01:05.885Z,73.30
2018-06-10T15:03:35.067Z,67.70
2018-06-10T15:06:04.214Z,68.80
2018-06-10T15:08:33.439Z,70.90
2018-06-10T15:11:02.655Z,72.00
2018-06-10T15:13:31.827Z,72.70
2018-06-10T15:16:00.970Z,69.80
2018-06-10T15:18:30.077Z,66.00
2018-06-10T15:20:59.246Z,70.90
2018-06-10T15:23:28.341Z,71.50
2018-06-10T15:25:57.585Z,71.70
2018-06-10T15:28:26.817Z,74.90
2018-06-10T15:30:55.950Z,75.50
2018-06-10T15:33:25.134Z,74.40
2018-06-10T15:35:54.273Z,73.20
2018-06-10T15:38:23.461Z,68.50
2018-06-10T15:40:52.562Z,68.20
2018-06-10T15:43:21.723Z,58.00
2018-06-10T15:45:50.901Z,50.40
2018-06-10T15:48:20.049Z,44.30
2018-06-10T15:50:49.254Z,42.20
2018-06-10T15:53:18.384Z,38.30
2018-06-10T15:55:47.608Z,37.00
2018-06-10T15:58:16.795Z,33.60
2018-06-10T16:00:45.971Z,28.90
2018-06-10T16:03:15.081Z,29.20
2018-06-10T16:05:44.260Z,22.80
2018-06-10T16:08:13.380Z,21.30
2018-06-10T16:10:42.563Z,19.60
2018-06-10T16:13:12.160Z,17.10
2018-06-10T16:18:10.279Z,14.70
2018-06-10T16:20:39.502Z,14.00
2018-06-10T16:23:08.866Z,14.20
2018-06-10T16:25:38.014Z,11.80
2018-06-10T16:28:07.236Z,10.20
2018-06-10T16:30:36.336Z,8.70
2018-06-10T16:33:05.490Z,7.50
2018-06-10T16:35:34.622Z,7.40
2018-06-10T16:38:03.791Z,8.30
2018-06-10T16:40:32.937Z,8.80
2018-06-10T16:43:02.117Z,9.50
2018-06-10T16:45:31.294Z,10.40
2018-06-10T16:48:00.474Z,11.50
2018-06-10T16:50:29.565Z,12.50
2018-06-10T16:56:18.532Z,12.30
2018-06-10T16:58:47.612Z,13.40
2018-06-10T17:01:16.754Z,14.80
2018-06-10T17:03:45.954Z,16.60
2018-06-10T17:06:15.053Z,18.40
2018-06-10T17:08:44.244Z,20.10
2018-06-10T17:11:13.431Z,20.10
2018-06-10T17:13:42.614Z,21.50
2018-06-10T17:16:11.798Z,23.20
2018-06-10T17:18:41.043Z,25.10
2018-06-10T17:21:10.254Z,26.20
2018-06-10T17:23:39.414Z,29.90
2018-06-10T17:26:08.563Z,31.70
2018-06-10T17:28:37.730Z,33.30
2018-06-10T17:31:06.945Z,34.40
2018-06-10T17:33:36.159Z,37.90
2018-06-10T17:36:05.341Z,37.90
2018-06-10T17:38:34.643Z,38.10
2018-06-10T17:41:03.984Z,38.40
2018-06-10T17:43:33.203Z,39.00
2018-06-10T17:46:02.413Z,40.20
2018-06-10T17:48:31.644Z,42.50
2018-06-10T17:51:00.759Z,41.10
2018-06-10T17:53:29.944Z,43.60
2018-06-10T17:55:59.192Z,45.80
2018-06-10T17:58:28.442Z,46.50
2018-06-10T18:00:57.678Z,43.80
2018-06-10T18:03:26.854Z,43.90
2018-06-10T18:05:56.040Z,44.50
2018-06-10T18:08:25.255Z,46.10
2018-06-10T18:10:54.530Z,47.00
2018-06-10T18:13:23.752Z,47.60
2018-06-10T18:15:52.908Z,48.90
2018-06-10T18:18:22.113Z,47.70
2018-06-10T18:20:51.347Z,42.50
2018-06-10T18:23:20.576Z,42.60
2018-06-10T18:25:49.877Z,42.60
2018-06-10T18:28:19.175Z,43.00
2018-06-10T18:30:48.429Z,45.30
2018-06-10T18:33:17.624Z,45.50
2018-06-10T18:35:46.873Z,46.40
2018-06-10T18:38:16.093Z,47.70
2018-06-10T18:40:45.319Z,48.50
2018-06-10T18:43:14.604Z,48.20
2018-06-10T18:45:43.989Z,49.90
2018-06-10T18:48:13.227Z,51.00
2018-06-10T18:50:42.462Z,50.50
2018-06-10T18:53:11.776Z,52.60
2018-06-10T18:55:41.061Z,51.30
2018-06-10T18:58:10.495Z,52.40
2018-06-10T19:00:39.830Z,52.30
2018-06-10T19:03:09.281Z,53.10
2018-06-10T19:05:38.486Z,54.90
2018-06-10T19:08:07.728Z,57.70
2018-06-10T19:10:36.971Z,58.70
2018-06-10T19:13:06.258Z,57.20
2018-06-10T19:15:35.509Z,57.10
2018-06-10T19:18:04.885Z,57.90
2018-06-10T19:20:34.180Z,58.40
2018-06-10T19:23:03.414Z,59.00
2018-06-10T19:25:32.795Z,61.50
2018-06-10T19:28:02.197Z,59.90
2018-06-10T19:30:31.514Z,61.50
2018-06-10T19:33:00.709Z,60.60
2018-06-10T19:35:29.997Z,60.00
2018-06-10T19:37:59.328Z,61.90
2018-06-10T19:40:28.625Z,63.70
2018-06-10T19:42:57.905Z,64.70
2018-06-10T19:45:27.201Z,65.90
2018-06-10T19:47:56.454Z,65.50
2018-06-10T19:50:25.728Z,66.20
2018-06-10T19:52:55.014Z,66.90
2018-06-10T19:55:24.392Z,67.90
2018-06-10T19:57:53.741Z,69.40
2018-06-10T20:00:23.050Z,71.30
2018-06-10T20:02:52.318Z,72.50
2018-06-10T20:05:21.585Z,71.70
2018-06-10T20:07:50.862Z,73.50
2018-06-10T20:10:20.143Z,69.30
2018-06-10T20:12:49.441Z,69.60
2018-06-10T20:15:18.694Z,70.50
2018-06-10T20:17:47.916Z,68.30
2018-06-10T20:20:17.126Z,65.50
2018-06-10T20:22:46.401Z,64.60
2018-06-10T20:25:15.642Z,64.40
2018-06-10T20:27:44.848Z,65.00
2018-06-10T20:30:14.119Z,64.80
2018-06-10T20:32:43.320Z,64.30
2018-06-10T20:35:12.597Z,64.40
2018-06-10T20:37:41.777Z,65.50
2018-06-10T20:40:11.022Z,65.30
2018-06-10T20:42:40.240Z,65.60
2018-06-10T20:45:09.444Z,66.50
2018-06-10T20:47:38.665Z,66.40
2018-06-10T20:50:07.961Z,66.60
2018-06-10T20:52:37.184Z,66.80
2018-06-10T20:55:06.460Z,67.60
2018-06-10T20:57:35.671Z,68.00
2018-06-10T21:00:04.918Z,68.90
2018-06-10T21:02:34.150Z,69.90
2018-06-10T21:05:03.392Z,68.70
2018-06-10T21:07:32.566Z,68.90
2018-06-10T21:10:01.741Z,69.10
2018-06-10T21:12:31.077Z,68.10
2018-06-10T21:15:00.224Z,68.40
2018-06-10T21:17:29.423Z,68.40
2018-06-10T21:19:58.616Z,68.50
2018-06-10T21:22:27.750Z,69.60
2018-06-10T21:24:56.905Z,69.60
2018-06-10T21:27:26.097Z,71.20
2018-06-10T21:29:55.227Z,71.30
2018-06-10T21:32:24.397Z,71.70
2018-06-10T21:34:53.694Z,72.70
2018-06-10T21:37:22.857Z,74.70
2018-06-10T21:39:52.003Z,75.20
2018-06-10T21:42:21.142Z,75.10
2018-06-10T21:44:50.342Z,75.10
2018-06-10T21:47:19.458Z,76.30
2018-06-10T21:49:48.655Z,77.70
2018-06-10T21:52:17.866Z,77.50
2018-06-10T21:54:46.974Z,77.90
2018-06-10T21:57:16.105Z,79.00
2018-06-10T21:59:45.334Z,79.60
2018-06-10T22:02:14.522Z,80.20
2018-06-10T22:04:43.609Z,81.90
2018-06-10T22:07:12.728Z,83.00
2018-06-10T22:09:42.145Z,82.60
2018-06-10T22:12:11.271Z,81.40
2018-06-10T22:14:40.439Z,80.00
2018-06-10T22:17:09.673Z,80.50
2018-06-10T22:19:38.816Z,79.50
2018-06-10T22:22:08.049Z,77.30
2018-06-10T22:24:37.238Z,74.40
2018-06-10T22:27:06.432Z,74.50
2018-06-10T22:29:35.603Z,74.00
2018-06-10T22:32:04.779Z,71.70
2018-06-10T22:34:34.005Z,71.50
2018-06-10T22:37:03.165Z,70.40
2018-06-10T22:39:32.358Z,71.40
2018-06-10T22:42:01.491Z,71.60
2018-06-10T22:44:30.672Z,71.50
2018-06-10T22:46:59.879Z,70.70
2018-06-10T22:49:29.034Z,71.00
2018-06-10T22:51:58.259Z,71.10
2018-06-10T22:54:39.844Z,71.10
2018-06-10T22:57:09.750Z,70.40
2018-06-10T22:59:39.035Z,70.50
2018-06-10T23:02:09.371Z,70.40
2018-06-10T23:04:38.613Z,70.80
2018-06-10T23:07:07.780Z,71.00
2018-06-10T23:09:36.946Z,72.10
2018-06-10T23:12:06.698Z,72.10
2018-06-10T23:14:35.949Z,71.70
2018-06-10T23:17:05.092Z,71.80
2018-06-10T23:19:35.140Z,72.30
2018-06-10T23:22:04.343Z,72.10
2018-06-10T23:24:33.547Z,72.10
2018-06-10T23:27:02.734Z,72.20
2018-06-10T23:29:31.901Z,72.50
2018-06-10T23:32:01.078Z,71.70
2018-06-10T23:34:30.238Z,72.20
2018-06-10T23:36:59.345Z,71.70
2018-06-10T23:39:28.539Z,71.70
2018-06-10T23:41:57.713Z,73.00
2018-06-10T23:44:26.874Z,72.30
2018-06-10T23:46:56.104Z,71.90
2018-06-10T23:49:25.328Z,71.40
2018-06-10T23:51:54.454Z,71.30
2018-06-10T23:54:23.578Z,71.80
2018-06-10T23:56:52.765Z,70.90
2018-06-10T23:59:21.951Z,72.20
